Time;durP1;ratioP1;P1;durP2;ratioP2;P2;SDS_P1;SDS_P2;PMS_P1;PMS_P2;Temp;Humidity;BMP_temperature;BMP_pressure;BME280_temperature;BME280_humidity;BME280_pressure;Samples;Min_cycle;Max_cycle;Signal;HPM_P1;HPM_P2
2020/12/29 00:00:09;;;;;;;9.75;7.45;;;;;;;-1.38;100.00;92852.41;1036065;28;20347;-72
2020/12/29 00:00:40;;;;;;;9.95;7.30;;;;;;;-1.43;100.00;92864.78;1035921;28;20033;-72
2020/12/29 00:01:10;;;;;;;10.00;7.32;;;;;;;-1.43;100.00;92859.63;1035978;28;20253;-71
2020/12/29 00:01:42;;;;;;;10.43;6.72;;;;;;;-1.39;100.00;92855.09;1040147;28;20826;-72
2020/12/29 00:02:13;;;;;;;8.57;6.50;;;;;;;-1.40;100.00;92848.34;1040099;28;20022;-72
2020/12/29 00:02:44;;;;;;;8.45;6.20;;;;;;;-1.40;100.00;92844.00;1043911;28;20255;-72
2020/12/29 00:03:14;;;;;;;9.18;6.57;;;;;;;-1.30;100.00;92851.03;1044184;28;20017;-72
2020/12/29 00:03:45;;;;;;;7.78;6.05;;;;;;;-1.32;100.00;92853.72;1035999;28;20057;-71
2020/12/29 00:04:19;;;;;;;9.35;6.47;;;;;;;-1.34;100.00;92855.59;1032067;28;20375;-72
2020/12/29 00:04:50;;;;;;;10.65;7.18;;;;;;;-1.43;100.00;92851.13;1031845;28;20506;-71
2020/12/29 00:05:21;;;;;;;8.32;6.68;;;;;;;-1.39;100.00;92862.78;1040129;28;20260;-72
2020/12/29 00:05:52;;;;;;;8.15;6.13;;;;;;;-1.40;100.00;92858.59;1031908;28;20407;-71
2020/12/29 00:06:25;;;;;;;10.32;6.10;;;;;;;-1.37;100.00;92854.06;1032109;28;20097;-72
2020/12/29 00:06:56;;;;;;;6.45;5.18;;;;;;;-1.33;100.00;92844.38;1035823;28;20022;-72
2020/12/29 00:07:27;;;;;;;6.57;5.50;;;;;;;-1.32;100.00;92847.78;1035956;28;20678;-72
2020/12/29 00:07:58;;;;;;;8.27;6.18;;;;;;;-1.37;100.00;92851.50;1035978;28;20257;-72
2020/12/29 00:08:29;;;;;;;8.70;6.40;;;;;;;-1.35;100.00;92850.56;1040085;28;20021;-71
2020/12/29 00:09:00;;;;;;;9.02;6.22;;;;;;;-1.37;100.00;92848.09;1039949;28;20036;-72
2020/12/29 00:09:30;;;;;;;7.93;6.38;;;;;;;-1.47;100.00;92835.13;1040043;28;20021;-72
2020/12/29 00:10:01;;;;;;;9.07;6.13;;;;;;;-1.43;100.00;92844.22;1044163;28;20017;-72
2020/12/29 00:10:32;;;;;;;7.47;5.65;;;;;;;-1.35;100.00;92853.13;1036035;28;20041;-71
2020/12/29 00:11:03;;;;;;;7.97;5.30;;;;;;;-1.38;100.00;92849.84;1035910;28;20097;-72
2020/12/29 00:11:33;;;;;;;7.43;5.57;;;;;;;-1.46;100.00;92849.63;1031845;28;20113;-72
2020/12/29 00:12:04;;;;;;;8.00;5.65;;;;;;;-1.38;100.00;92852.41;1027893;28;20461;-72
2020/12/29 00:12:35;;;;;;;9.32;6.63;;;;;;;-1.42;100.00;92856.16;1036029;28;20121;-71
2020/12/29 00:13:06;;;;;;;11.32;6.78;;;;;;;-1.46;100.00;92852.19;1027831;28;20014;-72
2020/12/29 00:13:37;;;;;;;8.98;5.93;;;;;;;-1.39;100.00;92861.06;1031797;28;20026;-72
2020/12/29 00:14:08;;;;;;;11.05;6.10;;;;;;;-1.38;100.00;92861.88;1032017;28;20285;-72
2020/12/29 00:14:38;;;;;;;8.10;5.80;;;;;;;-1.31;100.00;92854.56;1032188;28;20023;-72
2020/12/29 00:15:09;;;;;;;9.43;6.20;;;;;;;-1.36;100.00;92862.59;1040051;28;20028;-72
2020/12/29 00:15:40;;;;;;;8.23;5.72;;;;;;;-1.40;100.00;92863.75;1035873;28;20045;-72
2020/12/29 00:16:11;;;;;;;7.82;6.00;;;;;;;-1.46;100.00;92865.00;1040349;28;20025;-72
2020/12/29 00:16:41;;;;;;;9.10;6.00;;;;;;;-1.42;100.00;92860.47;1031833;28;20401;-71
2020/12/29 00:17:12;;;;;;;10.32;6.47;;;;;;;-1.37;100.00;92855.78;1031973;28;20036;-72
2020/12/29 00:17:43;;;;;;;7.32;5.80;;;;;;;-1.34;100.00;92857.34;1035848;28;20172;-72
2020/12/29 00:18:14;;;;;;;7.47;4.88;;;;;;;-1.38;100.00;92861.88;1040149;28;20033;-71
2020/12/29 00:18:44;;;;;;;7.20;5.18;;;;;;;-1.43;100.00;92861.41;1036270;28;20033;-71
2020/12/29 00:19:23;;;;;;;8.27;5.20;;;;;;;-1.39;100.00;92862.78;1031938;28;20030;-72
2020/12/29 00:19:54;;;;;;;6.95;5.65;;;;;;;-1.42;100.00;92863.84;1040095;28;20493;-72
2020/12/29 00:20:25;;;;;;;7.95;5.22;;;;;;;-1.31;100.00;92860.50;1036158;28;20264;-72
2020/12/29 00:20:57;;;;;;;7.90;5.40;;;;;;;-1.28;100.00;92867.16;1037988;28;20026;-71
2020/12/29 00:21:27;;;;;;;8.32;5.63;;;;;;;-1.26;100.00;92873.00;1044848;28;20013;-72
2020/12/29 00:21:58;;;;;;;7.20;5.03;;;;;;;-1.31;100.00;92875.91;1044499;28;20256;-72
2020/12/29 00:22:29;;;;;;;7.03;4.82;;;;;;;-1.25;100.00;92879.78;1038376;28;20033;-72
2020/12/29 00:23:00;;;;;;;6.57;4.68;;;;;;;-1.23;100.00;92870.19;1032124;28;20026;-72
2020/12/29 00:23:31;;;;;;;6.10;4.72;;;;;;;-1.25;100.00;92882.34;1031753;28;20104;-72
2020/12/29 00:24:02;;;;;;;7.20;4.78;;;;;;;-1.29;100.00;92886.88;1031981;28;20026;-72
2020/12/29 00:24:32;;;;;;;8.05;4.95;;;;;;;-1.24;100.00;92881.41;1028087;28;20049;-72
2020/12/29 00:25:04;;;;;;;7.18;4.93;;;;;;;-1.19;100.00;92884.44;1035903;28;20268;-72
2020/12/29 00:25:34;;;;;;;7.10;4.72;;;;;;;-1.27;100.00;92882.44;1036056;28;20179;-72
2020/12/29 00:26:08;;;;;;;6.55;4.57;;;;;;;-1.25;100.00;92875.44;1031836;28;20738;-72
2020/12/29 00:26:40;;;;;;;6.30;4.35;;;;;;;-1.28;100.00;92882.56;1036045;28;20053;-72
2020/12/29 00:27:11;;;;;;;6.82;4.35;;;;;;;-1.28;100.00;92888.50;1031829;28;20277;-72
2020/12/29 00:27:42;;;;;;;6.60;4.15;;;;;;;-1.32;100.00;92884.53;1035829;28;20323;-72
2020/12/29 00:28:12;;;;;;;7.65;4.47;;;;;;;-1.39;100.00;92884.19;1035880;28;20120;-72
2020/12/29 00:28:43;;;;;;;7.00;5.10;;;;;;;-1.38;100.00;92882.41;1032128;28;20030;-72
2020/12/29 00:29:14;;;;;;;6.43;4.50;;;;;;;-1.41;100.00;92893.75;1040052;28;20036;-72
2020/12/29 00:29:45;;;;;;;6.88;4.75;;;;;;;-1.45;100.00;92884.59;1035850;28;20030;-72
2020/12/29 00:30:15;;;;;;;7.93;4.90;;;;;;;-1.33;100.00;92888.03;1032029;28;20585;-72
2020/12/29 00:30:46;;;;;;;7.55;4.50;;;;;;;-1.28;100.00;92885.13;1039999;28;20116;-72
2020/12/29 00:31:18;;;;;;;6.10;4.63;;;;;;;-1.24;100.00;92883.97;1040043;28;20454;-72
2020/12/29 00:31:49;;;;;;;6.97;5.00;;;;;;;-1.27;100.00;92879.06;1035770;28;20032;-72
2020/12/29 00:32:20;;;;;;;8.45;4.60;;;;;;;-1.28;100.00;92887.69;1039923;28;20306;-72
2020/12/29 00:32:51;;;;;;;6.82;4.70;;;;;;;-1.19;100.00;92887.03;1040016;28;20030;-71
2020/12/29 00:33:22;;;;;;;6.25;4.65;;;;;;;-1.26;100.00;92886.66;1031947;28;20034;-72
2020/12/29 00:33:56;;;;;;;6.90;4.62;;;;;;;-1.23;100.00;92881.28;1039850;28;20029;-71
2020/12/29 00:34:27;;;;;;;8.02;5.45;;;;;;;-1.18;100.00;92879.19;1031926;28;20391;-72
2020/12/29 00:34:57;;;;;;;6.22;4.32;;;;;;;-1.19;100.00;92887.81;1040082;28;20347;-72
2020/12/29 00:35:28;;;;;;;6.38;4.20;;;;;;;-1.13;100.00;92883.19;1040000;28;20276;-71
2020/12/29 00:35:59;;;;;;;6.07;4.20;;;;;;;-1.12;100.00;92880.50;1043971;28;20021;-72
2020/12/29 00:36:31;;;;;;;6.80;4.40;;;;;;;-1.19;100.00;92876.75;1039733;28;20605;-71
2020/12/29 00:37:01;;;;;;;5.35;3.83;;;;;;;-1.17;100.00;92882.59;1035908;28;20287;-72
2020/12/29 00:37:32;;;;;;;6.65;4.30;;;;;;;-1.23;100.00;92889.00;1044030;28;20358;-72
2020/12/29 00:38:03;;;;;;;7.93;4.45;;;;;;;-1.23;100.00;92890.75;1039975;28;20313;-72
2020/12/29 00:38:34;;;;;;;8.23;4.32;;;;;;;-1.24;100.00;92892.50;1035895;28;20269;-72
2020/12/29 00:39:05;;;;;;;6.97;4.30;;;;;;;-1.22;100.00;92897.50;1035989;28;20046;-72
2020/12/29 00:39:36;;;;;;;6.43;3.90;;;;;;;-1.20;100.00;92899.06;1035909;28;20252;-72
2020/12/29 00:40:06;;;;;;;5.55;3.75;;;;;;;-1.23;100.00;92896.69;1035702;28;20028;-72
2020/12/29 00:40:37;;;;;;;6.20;4.22;;;;;;;-1.21;100.00;92892.25;1035778;28;20112;-72
2020/12/29 00:41:09;;;;;;;6.13;4.00;;;;;;;-1.18;100.00;92881.78;1035893;28;20119;-72
2020/12/29 00:41:40;;;;;;;7.50;4.20;;;;;;;-1.14;100.00;92884.13;1035935;28;20037;-72
2020/12/29 00:42:11;;;;;;;6.97;4.60;;;;;;;-1.10;100.00;92880.38;1039793;28;20263;-72
2020/12/29 00:42:41;;;;;;;6.72;4.25;;;;;;;-1.13;100.00;92886.56;1035897;28;20528;-72
2020/12/29 00:43:12;;;;;;;5.93;4.28;;;;;;;-1.11;100.00;92879.53;1027848;28;20161;-72
2020/12/29 00:43:43;;;;;;;6.43;3.97;;;;;;;-1.11;100.00;92874.41;1031811;28;20029;-72
2020/12/29 00:44:14;;;;;;;6.78;3.95;;;;;;;-1.10;100.00;92875.25;1035930;28;20457;-71
2020/12/29 00:44:45;;;;;;;6.40;4.30;;;;;;;-1.14;100.00;92887.50;1039821;28;20275;-71
2020/12/29 00:45:16;;;;;;;5.32;3.70;;;;;;;-1.10;100.00;92886.34;1035981;28;20299;-72
2020/12/29 00:45:47;;;;;;;6.40;4.13;;;;;;;-1.08;100.00;92874.19;1035993;28;20026;-72
2020/12/29 00:46:19;;;;;;;6.43;3.92;;;;;;;-1.09;100.00;92871.72;1035853;28;20030;-71
2020/12/29 00:46:50;;;;;;;5.45;3.55;;;;;;;-1.14;100.00;92873.84;1039832;28;20263;-72
2020/12/29 00:47:21;;;;;;;6.08;3.96;;;;;;;-1.13;100.00;92866.00;1039907;28;20256;-72
2020/12/29 00:47:52;;;;;;;6.10;3.85;;;;;;;-1.22;100.00;92869.25;1036039;28;20104;-72
2020/12/29 00:48:23;;;;;;;6.03;3.88;;;;;;;-1.29;100.00;92858.63;1039853;28;20130;-72
2020/12/29 00:48:54;;;;;;;6.85;4.25;;;;;;;-1.20;100.00;92870.78;1031713;28;20520;-72
2020/12/29 00:49:25;;;;;;;6.15;3.95;;;;;;;-1.17;100.00;92864.59;1031828;28;20037;-72
2020/12/29 00:49:56;;;;;;;8.75;3.70;;;;;;;-1.12;100.00;92872.78;1031906;28;20312;-72
2020/12/29 00:50:27;;;;;;;6.22;4.05;;;;;;;-1.17;100.00;92867.16;1035758;28;20443;-72
2020/12/29 00:51:08;;;;;;;7.90;4.07;;;;;;;-1.22;100.00;92864.13;1035777;28;20018;-72
2020/12/29 00:51:39;;;;;;;6.18;3.60;;;;;;;-1.09;100.00;92877.72;1039946;28;20104;-72
2020/12/29 00:52:10;;;;;;;5.57;3.75;;;;;;;-1.09;100.00;92877.72;1039874;28;20264;-71
2020/12/29 00:52:40;;;;;;;5.15;3.58;;;;;;;-1.14;100.00;92879.78;1039786;28;20438;-71
2020/12/29 00:53:11;;;;;;;6.18;3.50;;;;;;;-1.15;100.00;92888.41;1035797;28;20026;-72
2020/12/29 00:53:42;;;;;;;4.90;3.35;;;;;;;-1.11;100.00;92876.97;1035836;28;20071;-72
2020/12/29 00:54:13;;;;;;;5.47;3.05;;;;;;;-1.00;100.00;92883.91;1035946;28;20018;-72
2020/12/29 00:54:44;;;;;;;6.10;3.60;;;;;;;-1.01;100.00;92869.44;1031758;28;20030;-72
2020/12/29 00:55:14;;;;;;;5.22;3.10;;;;;;;-1.02;100.00;92870.34;1031764;28;20023;-72
2020/12/29 00:55:45;;;;;;;5.68;3.33;;;;;;;-1.07;100.00;92870.72;1039959;28;20025;-72
2020/12/29 00:56:16;;;;;;;5.60;3.60;;;;;;;-1.04;100.00;92875.59;1035885;28;20386;-72
2020/12/29 00:56:47;;;;;;;5.10;3.33;;;;;;;-1.04;100.00;92877.34;1035722;28;20340;-71
2020/12/29 00:57:18;;;;;;;6.20;3.85;;;;;;;-1.10;100.00;92872.69;1031825;28;20033;-72
2020/12/29 00:57:49;;;;;;;5.40;3.25;;;;;;;-1.03;100.00;92887.53;1035954;28;20279;-72
2020/12/29 00:58:20;;;;;;;6.50;3.80;;;;;;;-1.01;100.00;92877.94;1035839;28;20049;-72
2020/12/29 00:58:51;;;;;;;4.85;3.22;;;;;;;-0.96;100.00;92871.63;1031762;28;20137;-72
2020/12/29 00:59:22;;;;;;;5.38;3.00;;;;;;;-0.92;100.00;92879.03;1039803;28;20325;-71
2020/12/29 00:59:52;;;;;;;6.55;3.10;;;;;;;-0.97;100.00;92881.09;1035963;28;20022;-72
2020/12/29 01:00:23;;;;;;;5.00;3.13;;;;;;;-1.01;100.00;92879.69;1031901;28;20026;-72
2020/12/29 01:00:54;;;;;;;5.00;3.17;;;;;;;-0.99;100.00;92883.78;1031694;28;20036;-72
2020/12/29 01:01:25;;;;;;;5.45;3.25;;;;;;;-0.92;100.00;92878.19;1035764;28;20022;-71
2020/12/29 01:01:57;;;;;;;7.18;3.63;;;;;;;-0.90;100.00;92887.44;1035843;28;20388;-72
2020/12/29 01:02:27;;;;;;;6.72;3.78;;;;;;;-0.90;100.00;92878.88;1039882;28;20053;-72
2020/12/29 01:02:58;;;;;;;4.72;2.83;;;;;;;-0.83;100.00;92883.44;1035553;28;20256;-72
2020/12/29 01:03:29;;;;;;;6.78;3.28;;;;;;;-0.91;100.00;92875.50;1035660;28;20018;-72
2020/12/29 01:03:59;;;;;;;4.97;2.72;;;;;;;-0.95;100.00;92889.50;1035980;28;20147;-72
2020/12/29 01:04:30;;;;;;;7.38;3.70;;;;;;;-0.98;100.00;92894.88;1031914;28;20030;-72
2020/12/29 01:05:01;;;;;;;5.07;3.05;;;;;;;-0.90;100.00;92902.00;1031746;28;20072;-71
2020/12/29 01:05:32;;;;;;;5.47;3.05;;;;;;;-0.86;100.00;92908.56;1035827;28;20171;-72
2020/12/29 01:06:02;;;;;;;4.40;2.70;;;;;;;-0.83;100.00;92901.44;1035653;28;20100;-71
2020/12/29 01:06:33;;;;;;;5.18;2.90;;;;;;;-0.83;100.00;92893.72;1031829;28;20033;-72
2020/12/29 01:07:04;;;;;;;4.78;2.97;;;;;;;-0.77;100.00;92892.44;1035888;28;20052;-72
2020/12/29 01:07:42;;;;;;;4.25;2.60;;;;;;;-0.72;100.00;92894.69;1043956;28;20031;-72
2020/12/29 01:08:13;;;;;;;5.63;3.05;;;;;;;-0.71;100.00;92894.56;1039899;28;20478;-71
2020/12/29 01:08:44;;;;;;;5.00;2.88;;;;;;;-0.71;100.00;92893.72;1031812;28;20261;-72
2020/12/29 01:09:14;;;;;;;6.75;2.80;;;;;;;-0.71;100.00;92907.41;1035755;28;20021;-71
2020/12/29 01:09:45;;;;;;;5.20;2.80;;;;;;;-0.72;100.00;92913.47;1031767;28;20026;-71
2020/12/29 01:10:16;;;;;;;4.78;2.78;;;;;;;-0.71;100.00;92907.41;1031818;28;20022;-72
2020/12/29 01:10:55;;;;;;;4.20;2.58;;;;;;;-0.65;100.00;92903.56;1035857;28;20022;-72
2020/12/29 01:11:27;;;;;;;4.32;2.60;;;;;;;-0.68;100.00;92901.22;1035893;28;20022;-72
2020/12/29 01:11:57;;;;;;;4.50;2.97;;;;;;;-0.78;100.00;92895.97;1035833;28;20614;-72
2020/12/29 01:12:28;;;;;;;4.60;2.78;;;;;;;-0.80;100.00;92901.22;1039919;28;20268;-72
2020/12/29 01:12:59;;;;;;;5.00;3.17;;;;;;;-0.78;100.00;92901.09;1035787;28;20403;-72
2020/12/29 01:13:30;;;;;;;4.28;2.67;;;;;;;-0.70;100.00;92901.31;1035694;28;20440;-72
2020/12/29 01:14:01;;;;;;;6.43;3.03;;;;;;;-0.71;100.00;92896.28;1035888;28;20245;-72
2020/12/29 01:14:32;;;;;;;6.00;2.75;;;;;;;-0.72;100.00;92903.19;1039913;28;20021;-72
2020/12/29 01:15:03;;;;;;;4.43;2.50;;;;;;;-0.75;100.00;92895.72;1035849;28;20454;-72
2020/12/29 01:15:37;;;;;;;5.60;2.67;;;;;;;-0.73;100.00;92899.00;1035555;28;20685;-72
2020/12/29 01:16:08;;;;;;;4.07;2.60;;;;;;;-0.74;100.00;92891.41;1031749;28;20266;-72
2020/12/29 01:16:40;;;;;;;5.18;3.00;;;;;;;-0.70;100.00;92903.09;1035803;28;20829;-72
2020/12/29 01:17:13;;;;;;;5.22;2.78;;;;;;;-0.73;100.00;92893.03;1035946;28;20737;-72
2020/12/29 01:17:44;;;;;;;5.85;3.00;;;;;;;-0.78;100.00;92888.25;1039798;28;20609;-72
2020/12/29 01:18:15;;;;;;;5.00;2.38;;;;;;;-0.73;100.00;92877.59;1031819;28;20297;-72
2020/12/29 01:18:47;;;;;;;4.07;2.45;;;;;;;-0.72;100.00;92877.50;1035904;28;20336;-71
2020/12/29 01:19:18;;;;;;;4.63;2.50;;;;;;;-0.74;100.00;92868.28;1035719;28;20025;-71
2020/12/29 01:19:49;;;;;;;4.25;2.50;;;;;;;-0.76;100.00;92872.72;1031681;28;20269;-72
2020/12/29 01:20:24;;;;;;;4.10;2.40;;;;;;;-0.69;100.00;92879.03;1039825;28;20021;-72
2020/12/29 01:20:58;;;;;;;4.55;2.63;;;;;;;-0.65;100.00;92870.13;1040095;28;20291;-72
2020/12/29 01:21:29;;;;;;;4.10;2.45;;;;;;;-0.68;100.00;92871.16;1035865;28;20661;-72
2020/12/29 01:22:00;;;;;;;5.03;2.75;;;;;;;-0.65;100.00;92862.44;1035675;28;20203;-71
2020/12/29 01:22:31;;;;;;;4.93;2.72;;;;;;;-0.63;100.00;92863.94;1039922;28;20440;-72
2020/12/29 01:23:01;;;;;;;7.10;2.53;;;;;;;-0.59;100.00;92865.34;1031776;28;20534;-71
2020/12/29 01:23:32;;;;;;;5.30;2.78;;;;;;;-0.60;100.00;92866.28;1043922;28;20028;-71
2020/12/29 01:24:03;;;;;;;4.35;2.60;;;;;;;-0.55;100.00;92870.25;1035617;28;20040;-72
2020/12/29 01:24:34;;;;;;;5.32;2.70;;;;;;;-0.59;100.00;92874.81;1035862;28;20025;-71
2020/12/29 01:25:04;;;;;;;4.70;2.47;;;;;;;-0.56;100.00;92873.75;1031870;28;20026;-71
2020/12/29 01:25:35;;;;;;;4.32;2.47;;;;;;;-0.54;100.00;92872.72;1048221;28;20139;-71
2020/12/29 01:26:07;;;;;;;4.88;2.53;;;;;;;-0.51;100.00;92871.66;1027564;28;20122;-71
2020/12/29 01:26:38;;;;;;;3.78;2.20;;;;;;;-0.47;100.00;92881.59;1031744;28;20029;-71
2020/12/29 01:27:09;;;;;;;4.82;2.65;;;;;;;-0.53;100.00;92870.94;1031663;28;20348;-72
2020/12/29 01:27:39;;;;;;;4.68;2.63;;;;;;;-0.52;100.00;92880.31;1039840;28;20367;-72
2020/12/29 01:28:11;;;;;;;3.90;2.30;;;;;;;-0.49;100.00;92880.06;1031664;28;20076;-72
2020/12/29 01:28:41;;;;;;;3.60;2.30;;;;;;;-0.45;100.00;92876.31;1035834;28;20152;-72
2020/12/29 01:29:12;;;;;;;3.85;2.10;;;;;;;-0.46;100.00;92867.78;1027680;28;20336;-72
2020/12/29 01:29:43;;;;;;;4.93;2.42;;;;;;;-0.43;100.00;92869.31;1035870;28;20493;-72
2020/12/29 01:30:14;;;;;;;5.00;2.58;;;;;;;-0.47;100.00;92871.31;1031661;28;20112;-72
2020/12/29 01:30:45;;;;;;;4.60;2.58;;;;;;;-0.48;100.00;92879.13;1035761;28;20102;-72
2020/12/29 01:31:23;;;;;;;5.15;2.50;;;;;;;-0.45;100.00;92871.16;1031727;28;20338;-72
2020/12/29 01:31:54;;;;;;;4.30;2.40;;;;;;;-0.45;100.00;92873.72;1035811;28;20030;-72
2020/12/29 01:32:24;;;;;;;4.15;2.58;;;;;;;-0.44;100.00;92876.19;1035848;28;20293;-72
2020/12/29 01:32:55;;;;;;;5.25;2.60;;;;;;;-0.49;100.00;92874.91;1044928;28;20025;-72
2020/12/29 01:33:26;;;;;;;4.20;2.53;;;;;;;-0.48;100.00;92874.81;1040691;28;20068;-72
2020/12/29 01:33:58;;;;;;;3.92;2.30;;;;;;;-0.50;100.00;92865.56;1036603;28;20080;-72
2020/12/29 01:34:29;;;;;;;6.40;2.55;;;;;;;-0.43;100.00;92883.00;1040504;28;20291;-72
2020/12/29 01:35:00;;;;;;;5.93;2.85;;;;;;;-0.44;100.00;92883.91;1040855;28;20342;-72
2020/12/29 01:35:31;;;;;;;4.78;2.63;;;;;;;-0.47;100.00;92885.91;1040716;28;20041;-72
2020/12/29 01:36:01;;;;;;;5.05;2.30;;;;;;;-0.49;100.00;92886.03;1044927;28;20120;-71
2020/12/29 01:36:32;;;;;;;3.60;2.22;;;;;;;-0.50;100.00;92886.16;1040442;28;20116;-72
2020/12/29 01:37:03;;;;;;;4.28;2.45;;;;;;;-0.52;100.00;92872.59;1032670;28;20442;-72
2020/12/29 01:37:34;;;;;;;4.63;2.50;;;;;;;-0.46;100.00;92877.25;1036700;28;20164;-71
2020/12/29 01:38:05;;;;;;;5.25;2.67;;;;;;;-0.53;100.00;92879.47;1036688;28;20033;-72
2020/12/29 01:38:36;;;;;;;3.70;2.28;;;;;;;-0.48;100.00;92881.69;1036583;28;20048;-72
2020/12/29 01:39:07;;;;;;;5.00;2.50;;;;;;;-0.48;100.00;92881.69;1036583;28;20792;-71
2020/12/29 01:39:37;;;;;;;4.75;2.30;;;;;;;-0.45;100.00;92881.44;1036798;28;20022;-71
2020/12/29 01:40:09;;;;;;;5.05;2.75;;;;;;;-0.45;100.00;92886.59;1036627;28;20044;-72
2020/12/29 01:40:39;;;;;;;4.60;2.50;;;;;;;-0.48;100.00;92882.50;1032537;28;20038;-72
2020/12/29 01:41:10;;;;;;;4.22;2.20;;;;;;;-0.43;100.00;92887.31;1032651;28;20665;-71
2020/12/29 01:41:41;;;;;;;6.38;3.47;;;;;;;-0.40;100.00;92889.63;1036575;28;20383;-71
2020/12/29 01:42:12;;;;;;;3.95;2.25;;;;;;;-0.40;100.00;92880.16;1032469;28;20030;-72
2020/12/29 01:42:45;;;;;;;4.47;2.80;;;;;;;-0.34;100.00;92878.88;1032481;28;20356;-72
2020/12/29 01:43:15;;;;;;;4.28;2.63;;;;;;;-0.35;100.00;92882.41;1036553;28;20107;-72
2020/12/29 01:43:47;;;;;;;3.70;2.38;;;;;;;-0.38;100.00;92887.75;1036556;28;20346;-72
2020/12/29 01:44:19;;;;;;;4.57;2.28;;;;;;;-0.36;100.00;92887.66;1040650;28;20029;-72
2020/12/29 01:44:49;;;;;;;5.13;2.50;;;;;;;-0.40;100.00;92892.22;1032500;28;20623;-72
2020/12/29 01:45:22;;;;;;;4.10;2.30;;;;;;;-0.43;100.00;92906.13;1036600;28;20276;-72
2020/12/29 01:45:53;;;;;;;4.95;2.58;;;;;;;-0.36;100.00;92905.66;1044815;28;20029;-71
2020/12/29 01:46:24;;;;;;;4.20;2.53;;;;;;;-0.33;100.00;92901.09;1036660;28;20753;-72
2020/12/29 01:46:55;;;;;;;3.55;2.10;;;;;;;-0.33;100.00;92882.28;1036488;28;20295;-72
2020/12/29 01:47:25;;;;;;;4.32;2.20;;;;;;;-0.37;100.00;92870.59;1032579;28;20026;-72
2020/12/29 01:47:56;;;;;;;4.50;2.20;;;;;;;-0.40;100.00;92875.00;1036639;28;20370;-72
2020/12/29 01:48:27;;;;;;;4.20;2.13;;;;;;;-0.40;100.00;92889.63;1032618;28;20030;-72
2020/12/29 01:48:58;;;;;;;4.53;2.25;;;;;;;-0.35;100.00;92897.81;1032415;28;20584;-72
2020/12/29 01:49:29;;;;;;;4.35;2.25;;;;;;;-0.36;100.00;92892.78;1032698;28;20030;-71
2020/12/29 01:49:59;;;;;;;4.53;2.35;;;;;;;-0.36;100.00;92872.22;1032619;28;20053;-72
2020/12/29 01:50:30;;;;;;;3.40;2.00;;;;;;;-0.40;100.00;92859.59;1036636;28;20534;-71
2020/12/29 01:51:01;;;;;;;3.90;2.20;;;;;;;-0.39;100.00;92888.72;1036531;28;20115;-72
2020/12/29 01:51:32;;;;;;;3.92;2.25;;;;;;;-0.35;100.00;92892.69;1036588;28;20071;-72
2020/12/29 01:52:02;;;;;;;3.95;2.20;;;;;;;-0.32;100.00;92902.75;1036587;28;20503;-72
2020/12/29 01:52:33;;;;;;;4.18;2.50;;;;;;;-0.29;100.00;92896.53;1036606;28;20471;-72
2020/12/29 01:53:04;;;;;;;3.65;1.95;;;;;;;-0.30;100.00;92895.72;1036520;28;20032;-72
2020/12/29 01:53:39;;;;;;;3.45;1.80;;;;;;;-0.27;100.00;92895.47;1040481;28;20063;-72
2020/12/29 01:54:09;;;;;;;4.38;2.08;;;;;;;-0.26;100.00;92891.97;1036631;28;20025;-72
2020/12/29 01:54:40;;;;;;;3.50;1.88;;;;;;;-0.21;100.00;92889.88;1032686;28;20269;-72
2020/12/29 01:55:11;;;;;;;5.18;2.30;;;;;;;-0.21;100.00;92889.88;1032568;28;20022;-72
2020/12/29 01:55:42;;;;;;;3.22;1.88;;;;;;;-0.19;100.00;92892.28;1032524;28;20513;-72
2020/12/29 01:56:13;;;;;;;3.67;2.08;;;;;;;-0.20;100.00;92896.63;1032621;28;20423;-72
2020/12/29 01:56:43;;;;;;;3.63;1.98;;;;;;;-0.23;100.00;92901.19;1044906;28;20103;-72
2020/12/29 01:57:14;;;;;;;4.07;2.00;;;;;;;-0.34;100.00;92876.28;1028409;28;20038;-72
2020/12/29 01:57:58;;;;;;;3.40;2.00;;;;;;;-0.19;100.00;92882.00;1036547;28;20054;-71
2020/12/29 01:58:29;;;;;;;3.90;1.80;;;;;;;-0.14;100.00;92890.19;1044906;28;20021;-72
2020/12/29 01:59:00;;;;;;;5.03;1.80;;;;;;;-0.14;100.00;92884.25;1040852;28;20276;-72
2020/12/29 01:59:31;;;;;;;3.10;1.60;;;;;;;-0.05;100.00;92896.38;1040493;28;20063;-72
2020/12/29 02:00:10;;;;;;;3.03;1.80;;;;;;;0.06;100.00;92898.94;1044847;28;20025;-72
2020/12/29 02:00:40;;;;;;;2.80;1.52;;;;;;;0.12;100.00;92897.63;1040729;28;20088;-72
2020/12/29 02:01:12;;;;;;;5.00;1.77;;;;;;;0.12;100.00;92900.22;1032438;28;20478;-71
2020/12/29 02:01:43;;;;;;;3.08;1.50;;;;;;;0.12;100.00;92908.75;1036393;28;20034;-72
2020/12/29 02:02:14;;;;;;;4.72;1.42;;;;;;;0.13;100.00;92907.81;1040642;28;20272;-73
2020/12/29 02:02:46;;;;;;;3.40;1.60;;;;;;;0.16;100.00;92906.75;1032170;28;20312;-72
2020/12/29 02:03:17;;;;;;;3.13;1.50;;;;;;;0.17;100.00;92911.78;1028385;28;20027;-72
2020/12/29 02:03:47;;;;;;;3.03;1.58;;;;;;;0.13;100.00;92902.66;1044429;28;20276;-72
2020/12/29 02:04:18;;;;;;;3.53;1.60;;;;;;;0.19;100.00;92914.25;1036669;28;20760;-72
2020/12/29 02:04:49;;;;;;;3.20;1.55;;;;;;;0.19;100.00;92907.31;1040620;28;20029;-72
2020/12/29 02:05:20;;;;;;;3.38;1.60;;;;;;;0.19;100.00;92911.66;1040580;28;20758;-71
2020/12/29 02:05:51;;;;;;;3.80;1.60;;;;;;;0.22;100.00;92916.56;1036263;28;20030;-72
2020/12/29 02:06:22;;;;;;;3.25;1.83;;;;;;;0.24;100.00;92916.44;1036637;28;20025;-72
2020/12/29 02:06:52;;;;;;;3.08;1.63;;;;;;;0.22;100.00;92926.03;1032429;28;20029;-72
2020/12/29 02:07:23;;;;;;;3.30;1.58;;;;;;;0.15;100.00;92911.09;1032492;28;20153;-73
2020/12/29 02:07:54;;;;;;;2.60;1.50;;;;;;;0.19;100.00;92922.78;1032177;28;20026;-72
2020/12/29 02:08:24;;;;;;;3.03;1.48;;;;;;;0.26;100.00;92937.72;1040646;28;20094;-72
2020/12/29 02:08:55;;;;;;;3.03;1.48;;;;;;;0.27;100.00;92935.03;1028470;28;20126;-72
2020/12/29 02:09:26;;;;;;;2.97;1.52;;;;;;;0.26;100.00;92935.16;1036451;28;20055;-73
2020/12/29 02:09:57;;;;;;;3.60;1.67;;;;;;;0.25;100.00;92936.09;1032293;28;20133;-72
2020/12/29 02:10:28;;;;;;;3.25;1.48;;;;;;;0.23;100.00;92943.94;1036642;28;20397;-72
2020/12/29 02:10:59;;;;;;;4.18;2.00;;;;;;;0.17;100.00;92934.94;1028402;28;20054;-72
2020/12/29 02:11:31;;;;;;;3.33;1.60;;;;;;;0.25;100.00;92947.22;1036493;28;20296;-72
2020/12/29 02:12:20;;;;;;;2.75;1.50;;;;;;;0.25;100.00;92956.69;1040496;28;20348;-72
2020/12/29 02:12:51;;;;;;;3.10;1.67;;;;;;;0.17;100.00;92952.16;1036516;28;20269;-72
2020/12/29 02:13:22;;;;;;;4.22;1.92;;;;;;;0.16;100.00;92953.09;1028416;28;20275;-72
2020/12/29 02:13:52;;;;;;;3.30;1.70;;;;;;;0.14;100.00;92952.38;1036253;28;20109;-72
2020/12/29 02:14:23;;;;;;;3.35;1.90;;;;;;;0.09;100.00;92952.72;1032267;28;20064;-72
2020/12/29 02:14:54;;;;;;;3.30;1.70;;;;;;;0.08;100.00;92951.09;1036590;28;20025;-72
2020/12/29 02:15:25;;;;;;;3.20;1.83;;;;;;;0.13;100.00;92951.56;1032490;28;20033;-72
2020/12/29 02:15:56;;;;;;;3.17;1.73;;;;;;;0.14;100.00;92954.97;1036213;28;20493;-72
2020/12/29 02:16:27;;;;;;;4.07;2.00;;;;;;;0.13;100.00;92956.72;1040416;28;20529;-72
2020/12/29 02:16:58;;;;;;;3.83;1.80;;;;;;;0.14;100.00;92954.97;1040614;28;20025;-72
2020/12/29 02:17:28;;;;;;;3.20;1.60;;;;;;;0.11;100.00;92952.63;1036612;28;20319;-73
2020/12/29 02:18:00;;;;;;;2.97;1.65;;;;;;;0.17;100.00;92955.53;1032369;28;20438;-72
2020/12/29 02:18:32;;;;;;;4.75;2.50;;;;;;;0.13;100.00;92958.47;1040353;28;20112;-72
2020/12/29 02:19:05;;;;;;;4.35;2.00;;;;;;;0.10;100.00;92956.94;1036531;28;20283;-72
2020/12/29 02:19:36;;;;;;;3.75;1.70;;;;;;;0.10;100.00;92946.66;1036382;28;20641;-73
2020/12/29 02:20:07;;;;;;;3.63;2.00;;;;;;;0.15;100.00;92951.44;1036373;28;20339;-72
2020/12/29 02:20:38;;;;;;;3.05;1.65;;;;;;;0.10;100.00;92951.81;1036429;28;20045;-72
2020/12/29 02:21:09;;;;;;;2.97;1.73;;;;;;;0.04;100.00;92949.72;1032368;28;20366;-72
2020/12/29 02:21:40;;;;;;;3.33;1.80;;;;;;;-0.01;100.00;92947.47;1044772;28;20027;-72
2020/12/29 02:22:15;;;;;;;3.97;1.88;;;;;;;0.03;100.00;92947.25;1036484;28;20690;-72
2020/12/29 02:22:46;;;;;;;4.10;2.13;;;;;;;-0.03;100.00;92931.34;1036351;28;20745;-72
2020/12/29 02:23:17;;;;;;;3.63;2.05;;;;;;;-0.04;100.00;92949.47;1036486;28;20311;-72
2020/12/29 02:23:48;;;;;;;3.47;1.80;;;;;;;-0.04;100.00;92949.47;1032460;28;20034;-72
2020/12/29 02:24:19;;;;;;;4.85;2.35;;;;;;;-0.04;100.00;92946.91;1036319;28;20037;-72
2020/12/29 02:24:51;;;;;;;4.13;2.22;;;;;;;-0.10;100.00;92945.63;1032335;28;20018;-72
2020/12/29 02:25:22;;;;;;;3.58;2.10;;;;;;;-0.16;100.00;92953.81;1040524;28;20022;-72
2020/12/29 02:25:53;;;;;;;3.47;1.80;;;;;;;-0.15;100.00;92952.06;1032355;28;20694;-72